Active alerts

Hennepin
  Details for Hennepin River Flood Warning  +1 additional alert


weather webcam more information weather webcam


Thunder radar more information blitzortung!


Rain radar more information rain snow radar


Visit our other weather sites:

Template documentation
and downloads

And another site


Nearby METAR Reports

   
EBBR - Brussels International Airport, Belgium
Distance from station: W 9 mi
Updated: May 19 2019 6:20 pm
Mist, Mostly Cloudy  
Mist, Mostly Cloudy  
   Wind: NW 6.9 mph
Wind: NW 6.9 mph
Temperature: 51.8°F
Dew Point: 50°F
Humidity: 94%
Barometer: 29.74 inHg
Clouds: Mostly Cloudy
Visibility: 1 mi
Cloud details: Mostly Cloudy 100 ft
EBBR 192320Z 32006KT 290V350 1200 R25L/2000N R25R/P2000N R01/1900N BR BKN001 11/10 Q1007 TEMPO 0400 FG
EBBE - Beauvechain (Bevekom), Belgium
Distance from station: SSE 10 mi
Updated: May 19 2019 6:25 pm
Light Rain, Overcast  
Light Rain, Overcast  
   Wind: NW 8.1 mph
Wind: NW 8.1 mph
Temperature: 51.8°F
Dew Point: 51.8°F
Humidity: 100%
Barometer: 29.74 inHg
Clouds: Overcast
Visibility: 0 mi
Cloud details: Overcast 200 ft
EBBE 192325Z AUTO 31007KT 0150 -RA OVC002/// 11/11 Q1007 RED
EBDT - Schaffen, Belgium
Distance from station: ENE 18 mi
Updated: May 19 2019 6:25 pm
  
  
   Wind: NW 6.9 mph
Wind: NW 6.9 mph
Temperature: 53.6°F
Dew Point: 53.6°F
Humidity: 100%
Barometer: 29.74 inHg
EBDT 192325Z AUTO 32006KT //// /// 12/12 Q1007
EBAW - Antwerp/Deurne, Belgium
Distance from station: NNW 23 mi
Updated: May 19 2019 6:20 pm
Mist, Overcast  
Mist, Overcast  
   Wind: NNW 9.2 mph
Wind: NNW 9.2 mph
Temperature: 53.6°F
Dew Point: 51.8°F
Humidity: 94%
Barometer: 29.74 inHg
Clouds: Overcast
Visibility: 1 mi
Cloud details: Overcast 200 ft
EBAW 192320Z AUTO 33008KT 2300 BR OVC002/// 12/11 Q1007
EBCI - Charleroi/Gosselies, Belgium
Distance from station: SSW 32 mi
Updated: May 19 2019 6:20 pm
Fog, Light Drizzle, Mostly Cloudy  
Fog, Light Drizzle, Mostly Cloudy  
   Wind: WNW 4.6 mph
Wind: WNW 4.6 mph
Temperature: 50°F
Wind Chill: 48.2°F
Dew Point: 50°F
Humidity: 100%
Barometer: 29.74 inHg
Clouds: Mostly Cloudy
Visibility: 0 mi
Cloud details: Mostly Cloudy 100 ft
EBCI 192320Z 29004KT 260V330 0200 R24/0550N FG -DZ BKN001 10/10 Q1007 NOSIG
EBLG - Bierset/Liege, Belgium
Distance from station: ESE 38 mi
Updated: May 19 2019 6:20 pm
Fog, Mostly Cloudy  
Fog, Mostly Cloudy  
   Wind: NNW 5.8 mph
Wind: NNW 5.8 mph
Temperature: 53.6°F
Dew Point: 51.8°F
Humidity: 94%
Barometer: 29.74 inHg
Clouds: Mostly Cloudy
Visibility: 0 mi
Cloud details: Mostly Cloudy 100 ft,
Mostly Cloudy 200 ft
EBLG 192320Z 33005KT 0200 R22L/1200U R22R/0800D R04R/0600D FG BKN001 BKN002 12/11 Q1007 TEMPO 0400 FG BKN001

Script developed by  Saratoga-weather.org Adapted for the template by  Weerstation Leuven

You find our weather info also at:

Weather Underground

Midwestern Weather Network

Citizen Weather Observer Program (CWOP)

HAMweather, WeatherForYou, PWS Weather

Equipment we use:

Weather-station
Davis VP2

Weather-program
Cumulus

Davis VP2

Cumulus